Time;durP1;ratioP1;P1;durP2;ratioP2;P2;SDS_P1;SDS_P2;PMS_P1;PMS_P2;Temp;Humidity;BMP_temperature;BMP_pressure;BME280_temperature;BME280_humidity;BME280_pressure;Samples;Min_cycle;Max_cycle;Signal;HPM_P1;HPM_P2
2021/01/28 00:00:21;;;;;;;13.95;6.78;;;7.10;99.90;;;;;;5057292;28;20052;-72
2021/01/28 00:02:50;;;;;;;17.20;6.95;;;7.00;99.90;;;;;;5058016;28;20053;-72
2021/01/28 00:05:19;;;;;;;16.02;6.30;;;7.00;99.90;;;;;;5040996;28;20048;-72
2021/01/28 00:07:46;;;;;;;17.50;7.47;;;7.00;99.90;;;;;;5041125;28;20048;-73
2021/01/28 00:10:19;;;;;;;17.08;7.97;;;7.00;99.90;;;;;;5038720;28;20053;-73
2021/01/28 00:12:47;;;;;;;19.17;8.30;;;7.00;99.90;;;;;;5036284;28;20080;-72
2021/01/28 00:15:17;;;;;;;17.55;7.25;;;7.00;99.90;;;;;;5032303;28;20059;-72
2021/01/28 00:17:44;;;;;;;21.80;7.75;;;7.00;99.90;;;;;;5035065;28;20073;-73
2021/01/28 00:20:14;;;;;;;19.17;8.30;;;7.00;99.90;;;;;;5036745;28;20053;-73
2021/01/28 00:22:41;;;;;;;23.88;8.20;;;7.00;99.90;;;;;;5045950;28;20346;-72
2021/01/28 00:25:17;;;;;;;20.00;7.95;;;7.10;99.90;;;;;;5038715;28;20051;-72
2021/01/28 00:27:44;;;;;;;19.33;8.13;;;7.10;99.90;;;;;;5027916;28;20054;-72
2021/01/28 00:30:20;;;;;;;24.00;7.95;;;7.10;99.90;;;;;;5027694;28;20546;-72
2021/01/28 00:32:48;;;;;;;23.23;8.55;;;7.10;99.90;;;;;;5034571;28;20049;-72
2021/01/28 00:35:31;;;;;;;16.63;7.45;;;7.10;99.90;;;;;;5046818;28;20048;-72
2021/01/28 00:37:59;;;;;;;17.92;7.80;;;7.10;99.90;;;;;;5039816;28;20053;-72
2021/01/28 00:40:27;;;;;;;20.58;8.13;;;7.10;99.90;;;;;;5056330;28;20053;-72
2021/01/28 00:42:55;;;;;;;23.15;7.13;;;7.00;99.90;;;;;;5048972;28;20064;-73
2021/01/28 00:45:25;;;;;;;23.75;7.60;;;7.10;99.90;;;;;;5031400;28;20051;-73
2021/01/28 00:47:52;;;;;;;21.80;7.97;;;7.00;99.90;;;;;;5041003;28;20061;-73
2021/01/28 00:50:21;;;;;;;19.80;7.78;;;7.00;99.90;;;;;;5030238;28;20051;-72
2021/01/28 00:52:47;;;;;;;19.20;6.70;;;7.00;99.90;;;;;;5051272;28;20423;-73
2021/01/28 00:55:16;;;;;;;21.27;8.48;;;7.00;99.90;;;;;;5039653;28;20135;-73
2021/01/28 00:57:43;;;;;;;16.50;7.25;;;7.00;99.90;;;;;;5033680;28;20052;-73
2021/01/28 01:00:16;;;;;;;22.10;8.32;;;7.00;99.90;;;;;;5030619;28;20052;-73
2021/01/28 01:02:43;;;;;;;22.95;7.95;;;7.00;99.90;;;;;;5037169;28;20068;-72
2021/01/28 01:05:13;;;;;;;23.23;9.55;;;7.00;99.90;;;;;;5031501;28;20049;-73
2021/01/28 01:07:39;;;;;;;25.10;9.48;;;7.00;99.90;;;;;;5028990;28;20049;-73
2021/01/28 01:10:09;;;;;;;24.25;8.57;;;6.90;99.90;;;;;;5061841;28;20055;-73
2021/01/28 01:12:36;;;;;;;22.95;9.15;;;6.90;99.90;;;;;;5035634;28;20379;-73
2021/01/28 01:15:06;;;;;;;21.48;8.00;;;6.90;99.90;;;;;;5063661;28;20041;-73
2021/01/28 01:17:33;;;;;;;37.85;9.40;;;6.90;99.90;;;;;;5029407;28;20136;-73
2021/01/28 01:20:00;;;;;;;23.92;9.07;;;6.90;99.90;;;;;;5042934;28;20053;-76
2021/01/28 01:22:42;;;;;;;20.35;8.05;;;6.90;99.90;;;;;;5038237;28;20049;-76
2021/01/28 01:25:19;;;;;;;18.08;7.38;;;6.90;99.90;;;;;;5039506;28;20048;-76
2021/01/28 01:27:45;;;;;;;23.80;8.32;;;6.90;99.90;;;;;;5052506;28;20067;-76
2021/01/28 01:30:13;;;;;;;20.17;8.07;;;6.90;99.90;;;;;;5043713;28;20038;-76
2021/01/28 01:32:45;;;;;;;22.50;8.57;;;6.90;99.90;;;;;;5046683;28;20056;-76
2021/01/28 01:35:14;;;;;;;18.52;8.35;;;6.90;99.90;;;;;;5047598;28;20519;-76
2021/01/28 01:37:41;;;;;;;23.77;8.93;;;6.90;99.90;;;;;;5050686;28;20421;-76
2021/01/28 01:40:11;;;;;;;20.70;8.98;;;6.90;99.90;;;;;;5038381;28;20059;-76
2021/01/28 01:42:41;;;;;;;22.13;8.75;;;6.90;99.90;;;;;;5044926;28;20049;-76
2021/01/28 01:45:08;;;;;;;25.40;8.70;;;6.90;99.90;;;;;;5040095;28;20053;-76
2021/01/28 01:47:52;;;;;;;19.77;7.43;;;6.90;99.90;;;;;;5052108;28;20049;-76
2021/01/28 01:50:40;;;;;;;21.35;8.65;;;6.90;99.90;;;;;;5041977;28;20048;-76
2021/01/28 01:53:27;;;;;;;23.40;8.15;;;6.90;99.90;;;;;;5054712;28;20129;-76
2021/01/28 01:55:58;;;;;;;20.95;7.45;;;6.90;99.90;;;;;;5064539;28;20804;-76
2021/01/28 01:58:42;;;;;;;17.95;7.82;;;6.90;99.90;;;;;;5020415;28;20049;-76
2021/01/28 02:01:09;;;;;;;20.42;8.60;;;6.90;99.90;;;;;;5040947;28;20072;-76
2021/01/28 02:03:38;;;;;;;20.00;7.43;;;6.90;99.90;;;;;;5037057;28;20053;-76
2021/01/28 02:06:19;;;;;;;17.50;7.55;;;6.90;99.90;;;;;;5035555;28;20041;-76
2021/01/28 02:08:49;;;;;;;25.55;8.60;;;6.90;99.90;;;;;;5049051;28;20406;-76
2021/01/28 02:11:15;;;;;;;19.90;7.55;;;6.90;99.90;;;;;;5025753;28;20480;-76
2021/01/28 02:13:48;;;;;;;19.75;7.63;;;6.90;99.90;;;;;;5045975;28;20130;-76
2021/01/28 02:16:16;;;;;;;18.73;8.50;;;6.90;99.90;;;;;;5026599;28;20083;-76
2021/01/28 02:18:44;;;;;;;21.13;8.95;;;6.90;99.90;;;;;;5029537;28;20052;-76
2021/01/28 02:21:22;;;;;;;19.42;9.05;;;6.80;99.90;;;;;;5036960;28;20068;-77
2021/01/28 02:24:22;;;;;;;29.63;8.18;;;6.80;99.90;;;;;;5038008;28;20118;-76
2021/01/28 02:26:50;;;;;;;29.45;8.73;;;6.80;99.90;;;;;;5037360;28;20049;-76
2021/01/28 02:29:20;;;;;;;25.02;8.18;;;6.80;99.90;;;;;;5036888;28;20037;-76
2021/01/28 02:31:52;;;;;;;21.67;8.88;;;6.70;99.90;;;;;;5048872;28;20107;-76
2021/01/28 02:34:20;;;;;;;25.00;8.35;;;6.70;99.90;;;;;;5039643;28;20084;-76
2021/01/28 02:36:50;;;;;;;19.50;7.78;;;6.80;99.90;;;;;;5033908;28;20429;-76
2021/01/28 02:39:25;;;;;;;29.05;9.32;;;6.80;99.90;;;;;;5036605;28;20053;-76
2021/01/28 02:42:39;;;;;;;22.35;8.02;;;6.80;99.90;;;;;;5031029;28;20056;-76
2021/01/28 02:45:08;;;;;;;27.52;8.93;;;6.80;99.90;;;;;;5057436;28;20401;-76
2021/01/28 02:47:34;;;;;;;28.77;8.18;;;6.80;99.90;;;;;;5035022;28;20500;-76
2021/01/28 02:50:32;;;;;;;24.58;8.55;;;6.90;99.90;;;;;;5027073;28;20151;-76
2021/01/28 02:53:02;;;;;;;37.53;9.27;;;6.90;99.90;;;;;;5041153;28;20045;-75
2021/01/28 02:55:31;;;;;;;42.28;10.07;;;6.90;99.90;;;;;;5050171;28;20045;-75
2021/01/28 02:58:02;;;;;;;24.73;8.38;;;6.90;99.90;;;;;;5017343;28;20049;-76
2021/01/28 03:00:34;;;;;;;35.58;9.27;;;6.90;99.90;;;;;;5046165;28;20435;-75
2021/01/28 03:03:06;;;;;;;34.58;9.07;;;6.90;99.90;;;;;;5045288;28;20045;-76
2021/01/28 03:05:49;;;;;;;33.72;8.55;;;6.90;99.90;;;;;;5042191;28;20099;-75
2021/01/28 03:08:16;;;;;;;28.42;8.63;;;6.80;99.90;;;;;;5038625;28;20168;-75
2021/01/28 03:10:43;;;;;;;24.65;8.88;;;6.90;99.90;;;;;;5030402;28;20098;-75
2021/01/28 03:13:14;;;;;;;23.60;8.15;;;6.90;99.90;;;;;;5047245;28;20072;-75
2021/01/28 03:15:41;;;;;;;23.35;8.88;;;6.90;99.90;;;;;;5036698;28;20538;-75
2021/01/28 03:18:09;;;;;;;23.95;9.02;;;6.90;99.90;;;;;;5040010;28;20065;-75
2021/01/28 03:20:37;;;;;;;40.65;9.65;;;6.90;99.90;;;;;;5023401;28;20052;-75
2021/01/28 03:23:03;;;;;;;46.38;10.40;;;6.90;99.90;;;;;;5018171;28;20049;-76
2021/01/28 03:25:38;;;;;;;62.15;11.30;;;6.90;99.90;;;;;;5013112;28;20046;-75
2021/01/28 03:28:06;;;;;;;51.13;8.73;;;6.90;99.90;;;;;;5009522;28;20045;-75
2021/01/28 03:30:46;;;;;;;29.50;9.95;;;6.90;99.90;;;;;;5022927;28;20054;-75
2021/01/28 03:33:15;;;;;;;28.42;9.77;;;6.90;99.90;;;;;;5023759;28;20048;-75
2021/01/28 03:35:44;;;;;;;30.65;9.15;;;6.90;99.90;;;;;;5019786;28;20221;-75
2021/01/28 03:38:11;;;;;;;;;;;6.80;99.90;;;;;;5027927;28;20064;-75
2021/01/28 03:40:38;;;;;;;20.90;7.50;;;6.80;99.90;;;;;;5046243;28;19929;-76
2021/01/28 03:43:09;;;;;;;27.52;8.88;;;6.80;99.90;;;;;;5016145;28;20382;-76
2021/01/28 03:45:36;;;;;;;24.15;8.45;;;6.80;99.90;;;;;;5044001;28;20059;-76
2021/01/28 03:48:04;;;;;;;18.42;7.63;;;6.80;99.90;;;;;;5027669;28;20049;-75
2021/01/28 03:50:35;;;;;;;20.33;7.65;;;6.80;99.90;;;;;;5012242;28;20053;-76
2021/01/28 03:53:01;;;;;;;22.50;7.97;;;6.80;99.90;;;;;;5006931;28;20081;-76
2021/01/28 03:55:28;;;;;;;16.17;7.53;;;6.80;99.90;;;;;;5016009;28;20060;-75
2021/01/28 03:58:06;;;;;;;17.88;8.45;;;6.80;99.90;;;;;;5028255;28;20099;-75
2021/01/28 04:00:34;;;;;;;20.02;8.27;;;6.80;99.90;;;;;;5034720;28;20057;-75
2021/01/28 04:03:03;;;;;;;17.80;7.50;;;6.70;99.90;;;;;;5022299;28;20049;-75
2021/01/28 04:05:39;;;;;;;21.60;9.07;;;6.70;99.90;;;;;;5021028;28;20100;-75
2021/01/28 04:08:05;;;;;;;20.13;6.72;;;6.80;99.90;;;;;;5029217;28;20053;-77
2021/01/28 04:10:36;;;;;;;18.90;7.03;;;6.70;99.90;;;;;;5031841;28;20119;-75
2021/01/28 04:13:07;;;;;;;25.48;8.23;;;6.70;99.90;;;;;;5030963;28;20053;-75
2021/01/28 04:15:35;;;;;;;26.55;8.75;;;6.70;99.90;;;;;;5020408;28;20068;-75
2021/01/28 04:18:02;;;;;;;30.67;8.93;;;6.70;99.90;;;;;;5016521;28;20095;-75
2021/01/28 04:20:33;;;;;;;31.23;8.52;;;6.70;99.90;;;;;;5056878;28;20182;-75
2021/01/28 04:22:59;;;;;;;21.98;9.00;;;6.70;99.90;;;;;;5035844;28;20052;-75
2021/01/28 04:25:27;;;;;;;28.45;7.43;;;6.70;99.90;;;;;;5025992;28;20045;-75
2021/01/28 04:27:54;;;;;;;31.92;8.88;;;6.70;99.90;;;;;;5031780;28;20048;-75
2021/01/28 04:30:32;;;;;;;38.50;8.90;;;6.70;99.90;;;;;;5053687;28;20140;-75
2021/01/28 04:33:01;;;;;;;34.33;9.45;;;6.80;99.90;;;;;;5033926;28;20082;-75
2021/01/28 04:35:28;;;;;;;33.83;7.93;;;6.80;99.90;;;;;;5053228;28;20045;-75
2021/01/28 04:37:54;;;;;;;50.10;8.73;;;6.70;99.90;;;;;;5034273;28;20426;-76
2021/01/28 04:40:36;;;;;;;50.85;9.00;;;6.70;99.90;;;;;;5032327;28;20059;-75
2021/01/28 04:43:24;;;;;;;49.35;9.30;;;6.70;99.90;;;;;;5029129;28;20057;-75
2021/01/28 04:45:53;;;;;;;30.77;8.13;;;6.70;99.90;;;;;;5035467;28;20045;-75
2021/01/28 04:48:19;;;;;;;47.17;9.13;;;6.70;99.90;;;;;;5034756;28;20526;-75
2021/01/28 04:50:48;;;;;;;35.17;7.90;;;6.70;99.90;;;;;;5031710;28;20175;-75
2021/01/28 04:53:20;;;;;;;25.45;9.20;;;6.70;99.90;;;;;;5026785;28;20385;-75
2021/01/28 04:55:54;;;;;;;31.58;9.38;;;6.70;99.90;;;;;;5041893;28;20048;-75
2021/01/28 04:58:21;;;;;;;38.10;8.98;;;6.70;99.90;;;;;;5054396;28;20079;-75
2021/01/28 05:00:48;;;;;;;34.15;9.88;;;6.70;99.90;;;;;;5039185;28;20094;-76
2021/01/28 05:03:29;;;;;;;42.67;10.05;;;6.70;99.90;;;;;;5035867;28;20056;-75
2021/01/28 05:05:59;;;;;;;33.53;8.70;;;6.70;99.90;;;;;;5026100;28;20082;-75
2021/01/28 05:08:25;;;;;;;26.98;9.43;;;6.70;99.90;;;;;;5050959;28;20053;-75
2021/01/28 05:10:54;;;;;;;22.13;8.93;;;6.70;99.90;;;;;;5023442;28;20045;-75
2021/01/28 05:13:28;;;;;;;30.30;8.68;;;6.70;99.90;;;;;;5039127;28;20048;-75
2021/01/28 05:15:57;;;;;;;25.42;9.15;;;6.70;99.90;;;;;;5032640;28;20106;-75
2021/01/28 05:18:36;;;;;;;37.78;9.50;;;6.70;99.90;;;;;;5064508;28;20110;-75
2021/01/28 05:21:04;;;;;;;;;;;6.70;99.90;;;;;;5039568;28;20134;-75
2021/01/28 05:23:33;;;;;;;24.40;9.05;;;6.70;99.90;;;;;;5037920;28;19927;-75
2021/01/28 05:26:01;;;;;;;23.48;9.48;;;6.70;99.90;;;;;;5036518;28;20636;-75
2021/01/28 05:28:38;;;;;;;25.63;9.27;;;6.70;99.90;;;;;;5046111;28;20143;-75
2021/01/28 05:31:05;;;;;;;27.10;9.20;;;6.70;99.90;;;;;;5058739;28;20049;-75
2021/01/28 05:33:40;;;;;;;28.13;10.32;;;6.70;99.90;;;;;;5034644;28;20049;-76
2021/01/28 05:36:12;;;;;;;20.75;8.88;;;6.70;99.90;;;;;;5032244;28;20048;-75
2021/01/28 05:38:43;;;;;;;26.50;10.23;;;6.80;99.90;;;;;;5030058;28;20479;-75
2021/01/28 05:41:33;;;;;;;21.73;9.30;;;6.70;99.90;;;;;;5033567;28;20455;-75
2021/01/28 05:44:37;;;;;;;22.42;9.10;;;6.70;99.90;;;;;;5047476;28;20071;-75
2021/01/28 05:47:12;;;;;;;22.13;9.32;;;6.70;99.90;;;;;;5022387;28;20095;-75
2021/01/28 05:49:42;;;;;;;21.30;9.43;;;6.70;99.90;;;;;;5033255;28;20407;-75
2021/01/28 05:52:28;;;;;;;22.63;8.63;;;6.70;99.90;;;;;;5035588;28;20059;-75
2021/01/28 05:55:07;;;;;;;28.88;8.23;;;6.70;99.90;;;;;;5038054;28;20057;-75
2021/01/28 05:57:40;;;;;;;17.38;8.60;;;6.80;99.90;;;;;;5042269;28;20091;-76
2021/01/28 06:00:10;;;;;;;18.70;8.80;;;6.80;99.90;;;;;;5035441;28;20060;-75
2021/01/28 06:03:05;;;;;;;19.95;8.40;;;6.70;99.90;;;;;;5039025;28;20056;-75
2021/01/28 06:06:00;;;;;;;15.27;7.63;;;6.80;99.90;;;;;;5029288;28;20045;-76
2021/01/28 06:09:10;;;;;;;19.48;8.32;;;6.70;99.90;;;;;;5035925;28;20045;-76
2021/01/28 06:12:01;;;;;;;18.15;7.25;;;6.70;99.90;;;;;;5035232;28;20380;-75
2021/01/28 06:15:05;;;;;;;17.08;8.05;;;6.70;99.90;;;;;;5040905;28;20471;-75
2021/01/28 06:18:02;;;;;;;15.23;6.95;;;6.70;99.90;;;;;;5039148;28;20045;-75
2021/01/28 06:20:47;;;;;;;14.45;7.10;;;6.70;99.90;;;;;;5006682;28;20094;-75
2021/01/28 06:23:28;;;;;;;13.77;6.60;;;6.70;99.90;;;;;;5047803;28;20048;-75
2021/01/28 06:25:58;;;;;;;11.38;6.22;;;6.80;99.90;;;;;;5024238;28;20126;-75
2021/01/28 06:28:54;;;;;;;12.68;5.70;;;6.80;99.90;;;;;;5029977;28;20057;-75
2021/01/28 06:31:26;;;;;;;11.45;5.72;;;6.80;99.90;;;;;;5040732;28;20098;-75
2021/01/28 06:34:14;;;;;;;12.25;6.18;;;6.80;99.90;;;;;;5043483;28;20076;-76
2021/01/28 06:37:01;;;;;;;12.75;5.57;;;6.80;99.90;;;;;;5044901;28;20107;-75
2021/01/28 06:39:35;;;;;;;11.90;5.20;;;6.80;99.90;;;;;;5035761;28;20487;-76
2021/01/28 06:42:01;;;;;;;12.15;5.50;;;6.80;99.90;;;;;;5032180;28;20148;-76
2021/01/28 06:45:01;;;;;;;11.80;5.80;;;6.80;99.90;;;;;;5030372;28;20410;-75
2021/01/28 06:47:46;;;;;;;13.07;5.40;;;6.80;99.90;;;;;;5001536;28;20054;-76
2021/01/28 06:50:22;;;;;;;11.80;5.70;;;6.70;99.90;;;;;;5034140;28;20426;-76
2021/01/28 06:53:04;;;;;;;10.70;5.38;;;6.70;99.90;;;;;;5033286;28;20106;-75
2021/01/28 06:55:43;;;;;;;12.20;5.07;;;6.70;99.90;;;;;;5042792;28;20087;-76
2021/01/28 06:58:43;;;;;;;;;;;6.70;99.90;;;;;;5022380;28;20383;-75
2021/01/28 07:01:20;;;;;;;8.52;3.80;;;6.70;99.90;;;;;;5041931;28;20005;-75
2021/01/28 07:04:11;;;;;;;8.03;3.90;;;6.70;99.90;;;;;;5028762;28;20381;-76
2021/01/28 07:06:37;;;;;;;10.68;4.53;;;6.70;99.90;;;;;;5030467;28;20319;-76
2021/01/28 07:09:53;;;;;;;9.40;4.68;;;6.70;99.90;;;;;;5035749;28;20119;-76
2021/01/28 07:12:35;;;;;;;9.98;3.75;;;6.70;99.90;;;;;;4994165;28;20125;-75
2021/01/28 07:15:03;;;;;;;9.88;4.40;;;6.60;99.90;;;;;;5002337;28;20045;-75
2021/01/28 07:17:38;;;;;;;9.17;4.07;;;6.60;99.90;;;;;;5010791;28;20144;-75
2021/01/28 07:20:12;;;;;;;10.40;4.43;;;6.60;99.90;;;;;;4978164;28;20342;-74
2021/01/28 07:22:42;;;;;;;9.77;3.80;;;6.60;99.90;;;;;;4978923;28;20497;-74
2021/01/28 07:25:28;;;;;;;7.88;3.35;;;6.60;99.90;;;;;;5029535;28;20103;-75
2021/01/28 07:28:23;;;;;;;6.50;3.42;;;6.60;99.90;;;;;;5013789;28;20103;-75
2021/01/28 07:31:50;;;;;;;7.60;3.60;;;6.60;99.90;;;;;;5044590;28;20098;-75
2021/01/28 07:34:35;;;;;;;6.32;3.28;;;6.60;99.90;;;;;;4890511;29;20204;-75
2021/01/28 07:37:20;;;;;;;6.10;2.90;;;6.60;99.90;;;;;;4885808;29;20378;-75
2021/01/28 07:39:50;;;;;;;4.78;2.63;;;6.60;99.90;;;;;;4996156;28;20405;-75
2021/01/28 07:45:30;;;;;;;4.93;2.72;;;6.60;99.90;;;;;;5033921;28;20067;-75
2021/01/28 07:47:59;;;;;;;6.07;3.00;;;6.60;99.90;;;;;;5025750;28;20396;-75
2021/01/28 07:50:32;;;;;;;5.60;2.80;;;6.60;99.90;;;;;;5015129;28;20053;-74
2021/01/28 07:53:36;;;;;;;5.45;2.60;;;6.60;99.90;;;;;;5028167;28;20100;-75
2021/01/28 07:56:03;;;;;;;4.20;2.78;;;6.60;99.90;;;;;;5013302;28;20100;-75
2021/01/28 07:58:57;;;;;;;4.00;2.33;;;6.60;99.90;;;;;;5016793;28;20045;-75
2021/01/28 08:01:24;;;;;;;4.30;2.42;;;6.60;99.90;;;;;;5018198;28;20126;-75
2021/01/28 08:04:06;;;;;;;4.32;2.58;;;6.50;99.90;;;;;;5021239;28;20095;-75
2021/01/28 08:06:38;;;;;;;4.20;2.22;;;6.50;99.90;;;;;;5018419;28;20092;-75
2021/01/28 08:09:08;;;;;;;5.65;2.63;;;6.50;99.90;;;;;;5001656;28;20054;-75
2021/01/28 08:11:37;;;;;;;5.95;2.80;;;6.50;99.90;;;;;;5021085;28;20041;-75
2021/01/28 08:14:12;;;;;;;4.95;2.55;;;6.50;99.90;;;;;;5021791;28;20128;-75
2021/01/28 08:16:38;;;;;;;4.15;2.30;;;6.50;99.90;;;;;;5020094;28;20088;-75
2021/01/28 08:19:11;;;;;;;4.25;2.90;;;6.50;99.90;;;;;;5052309;28;20087;-75
2021/01/28 08:22:06;;;;;;;6.35;2.80;;;6.50;99.90;;;;;;5035712;28;20466;-75
2021/01/28 08:24:35;;;;;;;4.47;2.53;;;6.50;99.90;;;;;;5050903;28;20071;-75
2021/01/28 08:27:21;;;;;;;;;;;6.50;99.90;;;;;;5038594;28;20400;-75
2021/01/28 08:30:18;;;;;;;5.75;2.53;;;6.50;99.90;;;;;;5032421;28;20364;-75
2021/01/28 08:32:56;;;;;;;3.90;2.47;;;6.50;99.90;;;;;;5039249;28;20044;-75
2021/01/28 08:35:38;;;;;;;3.67;2.35;;;6.50;99.90;;;;;;5034926;28;20044;-75
2021/01/28 08:38:10;;;;;;;3.90;2.53;;;6.50;99.90;;;;;;5047990;28;20045;-75
2021/01/28 08:40:36;;;;;;;5.93;2.90;;;6.40;99.90;;;;;;5041609;28;20049;-75
2021/01/28 08:43:25;;;;;;;3.72;2.30;;;6.40;99.90;;;;;;5036975;28;20045;-75
2021/01/28 08:46:10;;;;;;;;;;;6.40;99.90;;;;;;5037993;28;20388;-75
2021/01/28 08:48:37;;;;;;;4.35;2.40;;;6.40;99.90;;;;;;5048212;28;19921;-75
2021/01/28 08:51:23;;;;;;;4.95;2.38;;;6.40;99.90;;;;;;5041295;28;20499;-75
2021/01/28 08:54:04;;;;;;;3.88;2.58;;;6.40;99.90;;;;;;5030144;28;20048;-75
2021/01/28 08:56:39;;;;;;;3.83;2.30;;;6.40;99.90;;;;;;5035817;28;20099;-75
2021/01/28 08:59:10;;;;;;;3.40;2.15;;;6.40;99.90;;;;;;5036936;28;20068;-76
2021/01/28 09:01:48;;;;;;;3.10;2.05;;;6.40;99.90;;;;;;5049560;28;20056;-75
2021/01/28 09:04:30;;;;;;;3.63;2.20;;;6.40;99.90;;;;;;5043209;28;20072;-76
2021/01/28 09:06:57;;;;;;;3.83;2.40;;;6.40;99.90;;;;;;5039037;28;20072;-75
2021/01/28 09:09:32;;;;;;;3.42;2.40;;;6.40;99.90;;;;;;5036112;28;20046;-75
2021/01/28 09:12:27;;;;;;;2.95;2.10;;;6.40;99.90;;;;;;5031645;28;20106;-76
2021/01/28 09:15:18;;;;;;;3.55;2.33;;;6.30;99.90;;;;;;5032124;28;20040;-75
2021/01/28 09:17:45;;;;;;;2.67;1.80;;;6.30;99.90;;;;;;5031760;28;20036;-75
2021/01/28 09:20:42;;;;;;;3.33;2.10;;;6.30;99.90;;;;;;5030554;28;20057;-75
2021/01/28 09:23:18;;;;;;;4.63;2.40;;;6.30;99.90;;;;;;5031531;28;20074;-76
2021/01/28 09:25:46;;;;;;;3.47;1.98;;;6.30;99.90;;;;;;5032527;28;20053;-75
2021/01/28 09:28:24;;;;;;;3.03;2.10;;;6.30;99.90;;;;;;5034498;28;20045;-76
2021/01/28 09:30:53;;;;;;;3.40;2.23;;;6.40;99.90;;;;;;5034001;28;20114;-75
2021/01/28 09:33:41;;;;;;;3.10;2.10;;;6.40;99.90;;;;;;5034931;28;20305;-75
2021/01/28 09:36:14;;;;;;;2.67;1.92;;;6.30;99.90;;;;;;5034617;28;20053;-75
2021/01/28 09:39:19;;;;;;;3.00;2.10;;;6.30;99.90;;;;;;5035330;28;20049;-75
2021/01/28 09:41:54;;;;;;;3.22;1.90;;;6.30;99.90;;;;;;5037866;28;20373;-76
2021/01/28 09:45:21;;;;;;;2.80;2.22;;;6.30;99.90;;;;;;5035175;28;20454;-75
2021/01/28 09:47:56;;;;;;;3.42;2.20;;;6.30;99.90;;;;;;5011410;28;20081;-76
2021/01/28 09:50:25;;;;;;;2.78;1.90;;;6.30;99.90;;;;;;5035747;28;20053;-75
2021/01/28 09:52:55;;;;;;;3.53;2.30;;;6.30;99.90;;;;;;5036390;28;20045;-75
2021/01/28 09:55:24;;;;;;;2.97;2.00;;;6.30;99.90;;;;;;5049635;28;20134;-75
2021/01/28 09:57:51;;;;;;;;;;;6.30;99.90;;;;;;5035758;28;20120;-75
2021/01/28 10:00:20;;;;;;;2.53;1.80;;;6.30;99.90;;;;;;5038033;28;19974;-75
2021/01/28 10:02:57;;;;;;;2.83;1.65;;;6.30;99.90;;;;;;5056338;28;20508;-75
2021/01/28 10:05:27;;;;;;;2.70;1.95;;;6.30;99.90;;;;;;5051484;28;20138;-75
2021/01/28 10:07:53;;;;;;;3.45;2.17;;;6.30;99.90;;;;;;5032164;28;20052;-75
2021/01/28 10:10:38;;;;;;;2.13;1.67;;;6.30;99.90;;;;;;5054499;28;20056;-76
2021/01/28 10:13:10;;;;;;;2.55;1.80;;;6.30;99.90;;;;;;5045208;28;20147;-75
2021/01/28 10:15:54;;;;;;;2.88;1.98;;;6.30;99.90;;;;;;5040919;28;20053;-76
2021/01/28 10:18:20;;;;;;;2.38;1.85;;;6.40;99.90;;;;;;5062493;28;20110;-76
2021/01/28 10:20:48;;;;;;;2.55;2.05;;;6.40;99.90;;;;;;5045058;28;20459;-76
2021/01/28 10:23:27;;;;;;;2.50;1.80;;;6.40;99.90;;;;;;5049112;28;20053;-77
2021/01/28 10:25:54;;;;;;;2.50;1.75;;;6.30;99.90;;;;;;5040910;28;20056;-75
2021/01/28 10:28:23;;;;;;;2.40;1.65;;;6.30;99.90;;;;;;5046051;28;20052;-77
2021/01/28 10:30:51;;;;;;;2.75;2.08;;;6.30;99.90;;;;;;5031596;28;20048;-77
2021/01/28 10:33:18;;;;;;;2.78;1.75;;;6.30;99.90;;;;;;5030243;28;20056;-75
2021/01/28 10:35:46;;;;;;;2.83;1.80;;;6.30;99.90;;;;;;5053115;28;20064;-75
2021/01/28 10:38:12;;;;;;;2.72;1.88;;;6.30;99.90;;;;;;5041509;28;20041;-76
2021/01/28 10:40:46;;;;;;;2.55;1.67;;;6.30;99.90;;;;;;5036988;28;20060;-75
2021/01/28 10:43:12;;;;;;;2.60;2.05;;;6.30;99.90;;;;;;5065554;28;20194;-75
2021/01/28 10:45:42;;;;;;;2.40;1.83;;;6.30;99.90;;;;;;5054626;28;20542;-76
2021/01/28 10:48:09;;;;;;;3.05;1.77;;;6.30;99.90;;;;;;5048997;28;20052;-76
2021/01/28 10:50:38;;;;;;;3.03;2.00;;;6.30;99.90;;;;;;5046256;28;20041;-75
2021/01/28 10:53:05;;;;;;;2.78;2.00;;;6.30;99.90;;;;;;5039709;28;20057;-75
2021/01/28 10:55:32;;;;;;;2.42;1.88;;;6.40;99.90;;;;;;5052603;28;20057;-76
2021/01/28 10:58:06;;;;;;;2.33;1.75;;;6.40;99.90;;;;;;5041995;28;20049;-76
2021/01/28 11:00:33;;;;;;;3.80;1.90;;;6.40;99.90;;;;;;5046372;28;20107;-76
2021/01/28 11:03:00;;;;;;;2.50;2.20;;;6.40;99.90;;;;;;5043353;28;20114;-76
2021/01/28 11:06:09;;;;;;;2.58;2.00;;;6.40;99.90;;;;;;5066166;28;20056;-76
2021/01/28 11:08:36;;;;;;;3.63;2.38;;;6.50;99.90;;;;;;5036077;28;20171;-76
2021/01/28 11:11:03;;;;;;;2.55;2.03;;;6.50;99.90;;;;;;5038241;28;20045;-76
2021/01/28 11:13:33;;;;;;;3.10;2.30;;;6.50;99.90;;;;;;5035314;28;20095;-76
2021/01/28 11:15:59;;;;;;;3.15;2.47;;;6.50;99.90;;;;;;5037314;28;20037;-75
2021/01/28 11:18:28;;;;;;;4.10;2.63;;;6.60;99.90;;;;;;5042570;28;20053;-76
2021/01/28 11:20:55;;;;;;;3.42;2.38;;;6.60;99.90;;;;;;5046582;28;20110;-76
2021/01/28 11:23:21;;;;;;;3.60;2.60;;;6.60;99.90;;;;;;5041991;28;20100;-75
2021/01/28 11:25:49;;;;;;;3.80;2.80;;;6.60;99.90;;;;;;5039009;28;20049;-76
2021/01/28 11:28:15;;;;;;;3.58;2.35;;;6.60;99.90;;;;;;5037224;28;20407;-76
2021/01/28 11:30:41;;;;;;;3.70;2.42;;;6.70;99.90;;;;;;5044462;28;20130;-76
2021/01/28 11:33:11;;;;;;;3.70;2.60;;;6.70;99.90;;;;;;5038327;28;20045;-76
2021/01/28 11:35:38;;;;;;;3.63;2.60;;;6.70;99.90;;;;;;5045174;28;20059;-75
2021/01/28 11:38:07;;;;;;;3.63;2.65;;;6.70;99.90;;;;;;5034972;28;20099;-76
2021/01/28 11:40:36;;;;;;;3.65;2.75;;;6.70;99.90;;;;;;5047864;28;20048;-76
2021/01/28 11:43:04;;;;;;;3.20;2.42;;;6.70;99.90;;;;;;5036634;28;20458;-75
2021/01/28 11:45:35;;;;;;;4.57;2.83;;;6.70;99.90;;;;;;5031978;28;20107;-75
2021/01/28 11:48:03;;;;;;;4.05;3.03;;;6.70;99.90;;;;;;5029767;28;20072;-75
2021/01/28 11:50:30;;;;;;;5.10;3.42;;;6.70;99.90;;;;;;5044979;28;20056;-75
2021/01/28 11:52:56;;;;;;;4.60;3.28;;;6.70;99.90;;;;;;5030898;28;20085;-76
2021/01/28 11:55:26;;;;;;;4.78;3.22;;;6.70;99.90;;;;;;5029741;28;20059;-76
2021/01/28 11:58:01;;;;;;;6.88;3.85;;;6.70;99.90;;;;;;5027861;28;20393;-75
2021/01/28 12:00:30;;;;;;;6.05;3.88;;;6.70;99.90;;;;;;5027225;28;20426;-76
2021/01/28 12:02:57;;;;;;;6.18;4.03;;;6.70;99.90;;;;;;5033397;28;20152;-75
2021/01/28 12:05:26;;;;;;;4.65;3.47;;;6.60;99.90;;;;;;5032896;28;20507;-75
2021/01/28 12:07:54;;;;;;;5.70;4.05;;;6.60;99.90;;;;;;5034609;28;20091;-76
2021/01/28 12:10:22;;;;;;;6.00;3.80;;;6.60;99.90;;;;;;5048215;28;20056;-75
2021/01/28 12:12:49;;;;;;;4.50;3.35;;;6.60;99.90;;;;;;5028605;28;20469;-76
2021/01/28 12:15:31;;;;;;;4.28;3.38;;;6.60;99.90;;;;;;5034891;28;20136;-75
2021/01/28 12:17:57;;;;;;;5.18;3.78;;;6.60;99.90;;;;;;5031621;28;20045;-75
2021/01/28 12:20:27;;;;;;;5.60;3.97;;;6.60;99.90;;;;;;5032728;28;20069;-75
2021/01/28 12:22:57;;;;;;;5.60;4.18;;;6.60;99.90;;;;;;5033263;28;20048;-75
2021/01/28 12:25:42;;;;;;;5.85;3.92;;;6.60;99.90;;;;;;5032074;28;20155;-76
2021/01/28 12:28:14;;;;;;;6.30;4.53;;;6.60;99.90;;;;;;5032580;28;20502;-76
2021/01/28 12:30:41;;;;;;;5.05;3.80;;;6.60;99.90;;;;;;5031485;28;20356;-75
2021/01/28 12:33:09;;;;;;;4.93;3.88;;;6.60;99.90;;;;;;5027343;28;20037;-75
2021/01/28 12:35:37;;;;;;;5.55;4.28;;;6.60;99.90;;;;;;5036542;28;20072;-76
2021/01/28 12:38:11;;;;;;;5.40;3.95;;;6.60;99.90;;;;;;5028398;28;20072;-76
2021/01/28 12:40:37;;;;;;;5.18;3.85;;;6.60;99.90;;;;;;5030734;28;20446;-76
2021/01/28 12:43:06;;;;;;;5.85;3.90;;;6.70;99.90;;;;;;5030014;28;20400;-76
2021/01/28 12:45:33;;;;;;;5.32;3.50;;;6.70;99.90;;;;;;5026608;28;20099;-76
2021/01/28 12:48:00;;;;;;;5.00;3.53;;;6.70;99.90;;;;;;5030258;28;20099;-76
2021/01/28 12:50:37;;;;;;;4.80;3.85;;;6.70;99.90;;;;;;5033107;28;20060;-76
2021/01/28 12:53:03;;;;;;;5.18;3.70;;;6.70;99.90;;;;;;5031433;28;20044;-76
2021/01/28 12:55:37;;;;;;;4.60;3.30;;;6.70;99.90;;;;;;5029803;28;20045;-76
2021/01/28 12:58:03;;;;;;;5.82;3.63;;;6.80;99.90;;;;;;5012098;28;20076;-76
2021/01/28 13:00:29;;;;;;;5.00;3.67;;;6.80;99.90;;;;;;5029204;28;20057;-75
2021/01/28 13:02:56;;;;;;;4.45;3.05;;;6.80;99.90;;;;;;5031329;28;20122;-76
2021/01/28 13:05:23;;;;;;;4.40;3.28;;;6.80;99.90;;;;;;5029414;28;20048;-76
2021/01/28 13:07:50;;;;;;;4.60;3.10;;;6.80;99.90;;;;;;5031294;28;20053;-74
2021/01/28 13:10:18;;;;;;;4.30;3.28;;;6.80;99.90;;;;;;5029369;28;20087;-75
2021/01/28 13:12:48;;;;;;;5.35;3.10;;;6.80;99.90;;;;;;5033056;28;20050;-74
2021/01/28 13:15:18;;;;;;;4.32;3.05;;;6.80;99.90;;;;;;5026695;28;20072;-74
2021/01/28 13:17:52;;;;;;;4.13;3.08;;;6.80;99.90;;;;;;5028410;28;20395;-75
2021/01/28 13:20:22;;;;;;;4.35;2.97;;;6.80;99.90;;;;;;5030481;28;20118;-75
2021/01/28 13:22:50;;;;;;;4.47;2.97;;;6.80;99.90;;;;;;5046165;28;20516;-74
2021/01/28 13:25:21;;;;;;;4.05;3.00;;;6.80;99.90;;;;;;5029818;28;20049;-75
2021/01/28 13:27:47;;;;;;;3.80;2.90;;;6.80;99.90;;;;;;5032517;28;20050;-75
2021/01/28 13:30:15;;;;;;;3.85;2.75;;;6.80;99.90;;;;;;5029357;28;20096;-75